Thunder radar more information blitzortung!


Radar de pluja more information rain snow radar


Visita la nostra xarxa de llocs de meteo:

Template documentation
and downloads

And another site



No particular awareness of the weather is required.    There are no Weather-warnings

Pagina Historial Weather Underground text

Diari Resum Abril 15, 2016 Unitats:  Mètric    Imperial   Tant
« Previous Dia
SegĂźent Dia »
Diari Setmana Mensual Anual Personalitzada
  Maxima: Minima: Media:
Temperatura: 24.5 °C 9.3 °C 18 °C
Punt de rosada: 12.6 °C 4.1 °C 8.7 °C
Humitat: 81 % 39 % 56 %
Wind Speed: 20.9 km/h 0.0 km/h 7.7 km/h
RĂ fegues de vent: 20.9 km/h - -
Vent:- - SSW
Pression baro: 1013.8 hPa 1009.0 hPa -
Precipitacions: 0.0 mm    
Historical Graphs
 
 
Dades de taula per Abril 15, 2016
Temps Temperatura Punt de rosada Pression baro Vent Wind Speed RĂ fegues de vent Humitat Rainfall Rate (Hourly)
00:00 11.3 °C 6.4 °C 1013.8 hPa West 1.6 km/h 3.2 km/h 72 % 0.0 mm
00:01 14.1 °C 4.1 °C 1012.8 hPa West 5.0 km/h 5.0 km/h 51 % 0.0 mm
00:06 14.1 °C 4.4 °C 1012.8 hPa West 5.6 km/h 5.6 km/h 52 % 0.0 mm
00:10 11.0 °C 6.2 °C 1012.8 hPa NNE 1.6 km/h 1.6 km/h 72 % 0.0 mm
00:11 14.1 °C 4.4 °C 1012.8 hPa NW 4.2 km/h 4.2 km/h 52 % 0.0 mm
00:20 10.5 °C 5.3 °C 1012.8 hPa NE 1.6 km/h 3.2 km/h 70 % 0.0 mm
00:30 10.1 °C 4.7 °C 1012.8 hPa ENE 1.6 km/h 4.8 km/h 69 % 0.0 mm
00:40 9.6 °C 4.4 °C 1012.8 hPa Calm   3.2 km/h 70 % 0.0 mm
00:50 9.6 °C 4.4 °C 1012.8 hPa NNW 1.6 km/h 3.2 km/h 70 % 0.0 mm
01:00 9.8 °C 4.8 °C 1012.8 hPa Calm   1.6 km/h 71 % 0.0 mm
01:10 9.8 °C 5.0 °C 1012.8 hPa Calm   1.6 km/h 72 % 0.0 mm
01:20 9.8 °C 4.8 °C 1011.7 hPa Calm     71 % 0.0 mm
01:30 9.5 °C 4.1 °C 1011.7 hPa NW 1.6 km/h 3.2 km/h 69 % 0.0 mm
01:40 9.3 °C 4.3 °C 1012.8 hPa Calm   1.6 km/h 71 % 0.0 mm
01:50 9.3 °C 4.3 °C 1011.7 hPa Calm     71 % 0.0 mm
02:00 9.4 °C 4.4 °C 1011.7 hPa Calm     71 % 0.0 mm
02:10 9.4 °C 4.6 °C 1012.8 hPa Calm   1.6 km/h 72 % 0.0 mm
02:20 9.5 °C 4.7 °C 1012.8 hPa WSW 3.2 km/h 4.8 km/h 72 % 0.0 mm
02:30 9.4 °C 5.4 °C 1012.8 hPa SW 3.2 km/h 4.8 km/h 76 % 0.0 mm
02:40 9.4 °C 5.8 °C 1013.8 hPa SW 3.2 km/h 4.8 km/h 78 % 0.0 mm
02:50 9.4 °C 5.9 °C 1013.8 hPa SW 1.6 km/h 3.2 km/h 79 % 0.0 mm
03:00 9.4 °C 5.9 °C 1013.8 hPa SW 1.6 km/h 3.2 km/h 79 % 0.0 mm
03:10 9.5 °C 6.1 °C 1013.8 hPa SW 1.6 km/h 3.2 km/h 79 % 0.0 mm
03:20 9.8 °C 6.2 °C 1013.8 hPa SW 3.2 km/h 4.8 km/h 78 % 0.0 mm
03:30 10.2 °C 5.9 °C 1013.8 hPa SW 1.6 km/h 4.8 km/h 75 % 0.0 mm
03:40 10.4 °C 6.2 °C 1013.8 hPa SW 1.6 km/h 4.8 km/h 75 % 0.0 mm
03:50 10.8 °C 6.9 °C 1013.8 hPa Calm   3.2 km/h 77 % 0.0 mm
04:00 11.0 °C 7.1 °C 1013.8 hPa SSW 3.2 km/h 3.2 km/h 77 % 0.0 mm
04:10 11.4 °C 7.7 °C 1013.8 hPa SW 4.8 km/h 6.4 km/h 78 % 0.0 mm
04:20 11.5 °C 8.0 °C 1013.8 hPa SW 3.2 km/h 3.2 km/h 79 % 0.0 mm
04:30 12.0 °C 8.4 °C 1013.8 hPa WSW 3.2 km/h 6.4 km/h 79 % 0.0 mm
04:40 12.1 °C 8.8 °C 1013.8 hPa SW 4.8 km/h 8.0 km/h 80 % 0.0 mm
04:50 12.4 °C 9.2 °C 1013.8 hPa SW 4.8 km/h 6.4 km/h 81 % 0.0 mm
05:00 12.8 °C 9.4 °C 1013.8 hPa SW 8.0 km/h 8.0 km/h 80 % 0.0 mm
05:10 13.9 °C 9.9 °C 1013.8 hPa SW 1.6 km/h 3.2 km/h 77 % 0.0 mm
05:20 13.9 °C 9.7 °C 1013.8 hPa East 1.6 km/h 1.6 km/h 76 % 0.0 mm
05:40 15.5 °C 10.4 °C 1013.8 hPa SE 3.2 km/h 6.4 km/h 72 % 0.0 mm
05:50 16.0 °C 10.3 °C 1013.8 hPa SSE 3.2 km/h 6.4 km/h 69 % 0.0 mm
06:00 16.9 °C 10.9 °C 1013.8 hPa SSE 3.2 km/h 6.4 km/h 68 % 0.0 mm
06:05 17.5 °C 11.1 °C 1013.8 hPa South 1.6 km/h 3.2 km/h 66 % 0.0 mm
11:06 17.5 °C 11.1 °C 1013.8 hPa SSW 3.7 km/h 3.7 km/h 66 % 0.0 mm
11:11 18.2 °C 11.5 °C 1013.8 hPa ENE 1.9 km/h 1.9 km/h 65 % 0.0 mm
11:16 18.5 °C 11.3 °C 1013.8 hPa ENE 1.9 km/h 1.9 km/h 63 % 0.0 mm
11:21 18.4 °C 11.2 °C 1013.8 hPa NW 3.7 km/h 3.7 km/h 63 % 0.0 mm
11:26 18.8 °C 11.1 °C 1013.8 hPa NW 2.6 km/h 3.2 km/h 61 % 0.0 mm
11:31 18.9 °C 11.2 °C 1013.8 hPa NW 2.6 km/h 3.2 km/h 61 % 0.0 mm
11:36 19.0 °C 11.1 °C 1013.8 hPa WNW 2.3 km/h 2.3 km/h 60 % 0.0 mm
11:41 19.3 °C 11.1 °C 1013.8 hPa WNW 2.3 km/h 2.3 km/h 59 % 0.0 mm
11:46 20.1 °C 11.3 °C 1013.8 hPa WNW 2.3 km/h 2.3 km/h 57 % 0.0 mm
11:51 20.2 °C 11.1 °C 1013.8 hPa NE 2.6 km/h 2.6 km/h 56 % 0.0 mm
11:56 20.2 °C 10.9 °C 1013.8 hPa ENE 3.7 km/h 3.7 km/h 55 % 0.0 mm
12:01 20.5 °C 10.9 °C 1013.8 hPa ESE 5.6 km/h 5.6 km/h 54 % 0.0 mm
12:06 20.5 °C 10.9 °C 1013.8 hPa WSW 5.6 km/h 5.6 km/h 54 % 0.0 mm
12:11 20.7 °C 10.8 °C 1013.8 hPa ESE 5.6 km/h 5.6 km/h 53 % 0.0 mm
12:16 21.0 °C 10.5 °C 1013.8 hPa South 5.6 km/h 5.6 km/h 51 % 0.0 mm
12:21 21.0 °C 10.8 °C 1013.8 hPa ENE 11.1 km/h 11.1 km/h 52 % 0.0 mm
12:26 21.1 °C 10.8 °C 1013.8 hPa ESE 7.4 km/h 7.4 km/h 52 % 0.0 mm
12:31 21.0 °C 10.5 °C 1013.8 hPa East 9.3 km/h 9.3 km/h 51 % 0.0 mm
12:36 21.2 °C 10.7 °C 1013.8 hPa East 9.3 km/h 9.3 km/h 51 % 0.0 mm
12:41 21.4 °C 10.8 °C 1013.8 hPa SSW 9.3 km/h 9.3 km/h 51 % 0.0 mm
12:46 22.1 °C 11.5 °C 1012.8 hPa WSW 5.6 km/h 5.6 km/h 51 % 0.0 mm
12:51 22.8 °C 11.8 °C 1012.8 hPa WSW 3.7 km/h 3.7 km/h 50 % 0.0 mm
12:56 23.1 °C 11.5 °C 1012.8 hPa West 3.7 km/h 4.2 km/h 48 % 0.0 mm
13:01 23.6 °C 11.6 °C 1012.8 hPa ESE 5.0 km/h 5.3 km/h 47 % 0.0 mm
13:06 23.7 °C 11.7 °C 1012.8 hPa SSW 3.9 km/h 3.9 km/h 47 % 0.0 mm
13:11 24.0 °C 12.6 °C 1012.8 hPa WSW 9.3 km/h 9.3 km/h 49 % 0.0 mm
13:16 23.8 °C 12.4 °C 1011.7 hPa SSW 7.4 km/h 7.4 km/h 49 % 0.0 mm
13:21 23.2 °C 11.6 °C 1011.7 hPa West 11.1 km/h 11.1 km/h 48 % 0.0 mm
13:26 22.8 °C 11.5 °C 1011.7 hPa WSW 12.2 km/h 12.2 km/h 49 % 0.0 mm
13:31 23.0 °C 11.4 °C 1010.7 hPa WSW 11.1 km/h 11.1 km/h 48 % 0.0 mm
13:36 22.8 °C 11.5 °C 1010.7 hPa SSW 14.8 km/h 14.8 km/h 49 % 0.0 mm
13:41 22.8 °C 11.5 °C 1010.7 hPa SW 9.3 km/h 9.3 km/h 49 % 0.0 mm
13:46 23.0 °C 11.4 °C 1011.7 hPa SW 13.0 km/h 13.0 km/h 48 % 0.0 mm
13:51 22.8 °C 11.2 °C 1011.7 hPa WSW 10.0 km/h 10.0 km/h 48 % 0.0 mm
13:56 22.7 °C 11.1 °C 1011.7 hPa SW 13.0 km/h 13.0 km/h 48 % 0.0 mm
14:01 23.0 °C 11.1 °C 1011.7 hPa SW 9.3 km/h 9.5 km/h 47 % 0.0 mm
14:06 22.9 °C 11.3 °C 1011.7 hPa SSW 13.0 km/h 13.0 km/h 48 % 0.0 mm
14:11 23.2 °C 11.3 °C 1011.7 hPa SSW 13.0 km/h 13.0 km/h 47 % 0.0 mm
14:16 22.8 °C 10.9 °C 1011.7 hPa SSW 16.7 km/h 16.7 km/h 47 % 0.0 mm
14:21 22.8 °C 10.9 °C 1011.7 hPa SW 16.7 km/h 16.7 km/h 47 % 0.0 mm
14:26 22.9 °C 11.0 °C 1011.7 hPa SW 14.8 km/h 14.8 km/h 47 % 0.0 mm
14:31 23.0 °C 10.8 °C 1011.7 hPa SW 9.3 km/h 9.3 km/h 46 % 0.0 mm
14:36 23.2 °C 10.6 °C 1011.7 hPa WSW 13.0 km/h 13.0 km/h 45 % 0.0 mm
14:41 23.6 °C 10.9 °C 1011.7 hPa WSW 11.9 km/h 11.9 km/h 45 % 0.0 mm
14:46 23.5 °C 10.6 °C 1011.7 hPa SW 13.7 km/h 13.7 km/h 44 % 0.0 mm
14:51 23.4 °C 10.1 °C 1011.7 hPa WSW 18.5 km/h 18.5 km/h 43 % 0.0 mm
14:56 23.4 °C 10.1 °C 1011.7 hPa SSW 15.8 km/h 15.8 km/h 43 % 0.0 mm
15:01 23.6 °C 9.9 °C 1010.7 hPa SSW 16.7 km/h 16.7 km/h 42 % 0.0 mm
15:06 23.6 °C 9.9 °C 1010.7 hPa SW 13.0 km/h 13.0 km/h 42 % 0.0 mm
15:11 23.9 °C 10.2 °C 1010.7 hPa WSW 13.0 km/h 13.0 km/h 42 % 0.0 mm
15:16 23.8 °C 10.1 °C 1010.7 hPa SW 20.6 km/h 20.6 km/h 42 % 0.0 mm
15:21 23.8 °C 10.1 °C 1010.7 hPa SW 13.0 km/h 13.0 km/h 42 % 0.0 mm
15:26 23.7 °C 10.0 °C 1010.7 hPa WSW 11.1 km/h 11.1 km/h 42 % 0.0 mm
15:31 23.9 °C 10.2 °C 1010.0 hPa West 10.0 km/h 10.0 km/h 42 % 0.0 mm
15:36 23.7 °C 10.0 °C 1010.0 hPa SW 14.8 km/h 14.8 km/h 42 % 0.0 mm
15:41 23.7 °C 10.0 °C 1010.0 hPa SW 13.0 km/h 13.0 km/h 42 % 0.0 mm
15:46 24.3 °C 10.2 °C 1010.0 hPa WSW 15.8 km/h 15.8 km/h 41 % 0.0 mm
15:51 24.2 °C 10.1 °C 1010.0 hPa SW 16.7 km/h 16.7 km/h 41 % 0.0 mm
15:56 24.5 °C 10.4 °C 1010.0 hPa WSW 14.8 km/h 14.8 km/h 41 % 0.0 mm
16:01 24.4 °C 10.3 °C 1010.0 hPa SW 19.8 km/h 19.8 km/h 41 % 0.0 mm
16:06 24.0 °C 9.6 °C 1010.0 hPa SSW 14.8 km/h 14.8 km/h 40 % 0.0 mm
16:11 24.0 °C 9.6 °C 1010.0 hPa SW 13.0 km/h 13.0 km/h 40 % 0.0 mm
16:16 23.6 °C 9.2 °C 1010.0 hPa SSW 18.5 km/h 18.5 km/h 40 % 0.0 mm
16:21 23.4 °C 9.0 °C 1010.0 hPa SW 16.7 km/h 16.7 km/h 40 % 0.0 mm
16:26 23.6 °C 9.2 °C 1010.0 hPa SW 15.6 km/h 15.6 km/h 40 % 0.0 mm
16:31 23.2 °C 8.5 °C 1010.0 hPa WSW 16.7 km/h 16.7 km/h 39 % 0.0 mm
16:36 23.3 °C 8.9 °C 1010.0 hPa SW 16.4 km/h 16.4 km/h 40 % 0.0 mm
16:41 23.0 °C 8.7 °C 1010.0 hPa SW 16.7 km/h 16.7 km/h 40 % 0.0 mm
16:46 23.0 °C 8.7 °C 1010.0 hPa WSW 13.0 km/h 13.0 km/h 40 % 0.0 mm
16:51 23.1 °C 9.1 °C 1010.0 hPa SW 11.1 km/h 11.1 km/h 41 % 0.0 mm
16:56 22.6 °C 8.7 °C 1010.0 hPa SW 16.7 km/h 16.7 km/h 41 % 0.0 mm
17:01 22.5 °C 8.9 °C 1010.0 hPa SW 16.7 km/h 16.7 km/h 42 % 0.0 mm
17:06 22.7 °C 9.1 °C 1010.0 hPa SSW 12.2 km/h 12.2 km/h 42 % 0.0 mm
17:11 22.6 °C 9.1 °C 1010.0 hPa WSW 16.7 km/h 16.7 km/h 42 % 0.0 mm
17:16 22.5 °C 8.9 °C 1010.0 hPa SSW 14.8 km/h 14.8 km/h 42 % 0.0 mm
17:21 22.4 °C 9.2 °C 1010.0 hPa SSW 20.9 km/h 20.9 km/h 43 % 0.0 mm
17:31 22.0 °C 9.2 °C 1010.0 hPa SSW 14.8 km/h 14.8 km/h 44 % 0.0 mm
17:36 21.6 °C 8.5 °C 1010.0 hPa SSW 14.8 km/h 14.8 km/h 43 % 0.0 mm
17:41 21.9 °C 8.7 °C 1010.0 hPa WSW 9.5 km/h 9.5 km/h 43 % 0.0 mm
17:46 21.9 °C 8.7 °C 1010.0 hPa SW 11.1 km/h 11.1 km/h 43 % 0.0 mm
17:51 21.4 °C 8.3 °C 1010.0 hPa SSW 11.1 km/h 11.1 km/h 43 % 0.0 mm
17:56 20.8 °C 8.1 °C 1010.0 hPa WSW 9.3 km/h 9.5 km/h 44 % 0.0 mm
18:02 20.6 °C 8.2 °C 1010.0 hPa SE 7.4 km/h 7.4 km/h 45 % 0.0 mm
18:12 20.5 °C 8.2 °C 1010.0 hPa West 11.1 km/h 11.1 km/h 45 % 0.0 mm
18:17 20.4 °C 8.1 °C 1010.0 hPa WSW 9.3 km/h 9.3 km/h 45 % 0.0 mm
18:22 20.4 °C 8.1 °C 1010.0 hPa SW 7.4 km/h 7.4 km/h 45 % 0.0 mm
18:27 20.5 °C 8.2 °C 1010.0 hPa SSW 7.4 km/h 7.4 km/h 45 % 0.0 mm
18:32 20.7 °C 8.3 °C 1010.0 hPa SE 7.9 km/h 7.9 km/h 45 % 0.0 mm
18:37 20.9 °C 8.5 °C 1010.0 hPa WSW 10.0 km/h 10.0 km/h 45 % 0.0 mm
18:42 20.5 °C 8.2 °C 1010.0 hPa SSW 14.8 km/h 14.8 km/h 45 % 0.0 mm
18:47 20.5 °C 8.2 °C 1010.0 hPa SW 11.1 km/h 11.1 km/h 45 % 0.0 mm
18:52 20.5 °C 8.2 °C 1010.0 hPa SW 11.1 km/h 11.1 km/h 45 % 0.0 mm
18:57 20.4 °C 7.7 °C 1010.0 hPa West 14.8 km/h 14.8 km/h 44 % 0.0 mm
19:02 20.4 °C 7.7 °C 1009.0 hPa SSW 9.3 km/h 9.3 km/h 44 % 0.0 mm
19:07 20.1 °C 7.4 °C 1009.0 hPa SSW 18.5 km/h 18.5 km/h 44 % 0.0 mm
19:12 19.8 °C 7.2 °C 1009.0 hPa SW 18.5 km/h 18.5 km/h 44 % 0.0 mm
19:17 19.6 °C 7.0 °C 1010.0 hPa WSW 13.0 km/h 13.0 km/h 44 % 0.0 mm
19:22 19.3 °C 7.1 °C 1010.0 hPa SW 14.8 km/h 14.8 km/h 45 % 0.0 mm
19:27 19.2 °C 6.9 °C 1010.0 hPa SSW 7.4 km/h 7.4 km/h 45 % 0.0 mm
19:32 19.0 °C 6.8 °C 1010.0 hPa SSW 9.3 km/h 9.3 km/h 45 % 0.0 mm
19:37 18.8 °C 6.9 °C 1010.0 hPa SSW 13.0 km/h 13.0 km/h 46 % 0.0 mm
19:42 18.6 °C 6.7 °C 1010.0 hPa SW 11.9 km/h 11.9 km/h 46 % 0.0 mm
19:47 18.4 °C 6.9 °C 1010.0 hPa WSW 13.0 km/h 13.0 km/h 47 % 0.0 mm
19:52 18.2 °C 6.7 °C 1010.0 hPa SSW 6.9 km/h 6.9 km/h 47 % 0.0 mm
19:57 18.0 °C 6.8 °C 1010.0 hPa SW 9.3 km/h 9.3 km/h 48 % 0.0 mm
20:02 17.9 °C 7.0 °C 1010.0 hPa SSW 9.0 km/h 9.0 km/h 49 % 0.0 mm
20:07 17.7 °C 7.2 °C 1010.0 hPa SSW 9.3 km/h 10.0 km/h 50 % 0.0 mm
20:12 17.4 °C 6.9 °C 1010.0 hPa SSW 7.4 km/h 7.4 km/h 50 % 0.0 mm
20:17 17.2 °C 7.3 °C 1010.0 hPa SW 13.0 km/h 13.0 km/h 52 % 0.0 mm
20:22 16.9 °C 7.8 °C 1010.0 hPa SW 9.0 km/h 9.0 km/h 55 % 0.0 mm
20:27 16.7 °C 8.4 °C 1010.0 hPa SSW 9.3 km/h 9.3 km/h 58 % 0.0 mm
20:32 16.5 °C 8.4 °C 1010.0 hPa SW 9.3 km/h 9.3 km/h 59 % 0.0 mm
20:37 16.3 °C 8.5 °C 1010.0 hPa SW 9.3 km/h 9.3 km/h 60 % 0.0 mm
20:42 16.2 °C 8.4 °C 1010.0 hPa SSW 9.3 km/h 9.3 km/h 60 % 0.0 mm
20:47 16.0 °C 8.5 °C 1009.0 hPa WSW 6.4 km/h 6.4 km/h 61 % 0.0 mm
20:52 15.8 °C 8.6 °C 1009.0 hPa WSW 9.3 km/h 9.3 km/h 62 % 0.0 mm
20:57 15.7 °C 8.7 °C 1009.0 hPa West 9.3 km/h 9.3 km/h 63 % 0.0 mm
21:02 15.6 °C 8.6 °C 1009.0 hPa WSW 9.3 km/h 9.3 km/h 63 % 0.0 mm
21:07 15.5 °C 8.5 °C 1009.0 hPa SW 5.6 km/h 5.6 km/h 63 % 0.0 mm
21:12 15.4 °C 8.4 °C 1009.0 hPa SSW 5.6 km/h 5.6 km/h 63 % 0.0 mm
21:22 15.2 °C 8.2 °C 1009.0 hPa SW 5.6 km/h 5.6 km/h 63 % 0.0 mm
21:32 15.1 °C 8.1 °C 1010.0 hPa SW 3.7 km/h 3.7 km/h 63 % 0.0 mm
21:37 15.0 °C 8.2 °C 1010.0 hPa SW 1.9 km/h 2.3 km/h 64 % 0.0 mm
21:42 14.9 °C 8.2 °C 1010.0 hPa WSW 3.7 km/h 3.7 km/h 64 % 0.0 mm
21:47 14.8 °C 8.1 °C 1009.0 hPa WSW 1.9 km/h 1.9 km/h 64 % 0.0 mm
21:52 14.6 °C 7.9 °C 1009.0 hPa WSW 1.9 km/h 1.9 km/h 64 % 0.0 mm
21:57 14.6 °C 8.1 °C 1009.0 hPa WSW 1.9 km/h   65 % 0.0 mm
22:02 14.5 °C 8.2 °C 1010.0 hPa Calm     66 % 0.0 mm
22:07 14.5 °C 8.2 °C 1010.0 hPa Calm     66 % 0.0 mm
22:12 14.4 °C 8.1 °C 1010.0 hPa Calm     66 % 0.0 mm
22:17 14.4 °C 8.1 °C 1010.0 hPa Calm     66 % 0.0 mm
22:22 14.3 °C 7.8 °C 1010.0 hPa West 2.6 km/h 2.6 km/h 65 % 0.0 mm
22:27 14.2 °C 7.9 °C 1010.0 hPa West 2.3 km/h   66 % 0.0 mm
22:37 14.0 °C 7.7 °C 1010.0 hPa West 1.9 km/h 1.9 km/h 66 % 0.0 mm
22:42 14.0 °C 7.9 °C 1010.0 hPa Calm     67 % 0.0 mm
22:52 14.0 °C 7.9 °C 1010.0 hPa SW 2.3 km/h   67 % 0.0 mm
22:57 14.0 °C 8.2 °C 1010.0 hPa Calm     68 % 0.0 mm
23:02 13.9 °C 8.1 °C 1010.0 hPa Calm     68 % 0.0 mm
23:07 13.8 °C 8.2 °C 1010.0 hPa Calm     69 % 0.0 mm
23:12 13.8 °C 8.2 °C 1010.0 hPa NE 3.7 km/h 3.7 km/h 69 % 0.0 mm
23:22 13.9 °C 8.3 °C 1010.0 hPa NE 1.9 km/h 1.9 km/h 69 % 0.0 mm
23:27 13.9 °C 8.3 °C 1010.0 hPa NE 1.9 km/h 1.9 km/h 69 % 0.0 mm
23:32 13.8 °C 8.2 °C 1010.0 hPa Calm     69 % 0.0 mm
23:37 13.8 °C 8.2 °C 1010.0 hPa NE 1.9 km/h   69 % 0.0 mm
23:42 13.8 °C 8.2 °C 1010.0 hPa NE 3.7 km/h 3.7 km/h 69 % 0.0 mm
23:47 13.8 °C 8.0 °C 1010.0 hPa West 3.7 km/h 3.7 km/h 68 % 0.0 mm
23:57 13.7 °C 8.3 °C 1010.0 hPa WSW 4.2 km/h 4.2 km/h 70 % 0.0 mm
Meteo Sesrovires
Elogis d' Weather Underground - 3.5 mb

Guio original per  Jim McMurry - jmcmurry@mwt.net Adaptat per a la plantilla per  Wim van der Kuil - Leuven-Template.eu

Trobareu la nostra informacio del temps tambe a:

Weather Underground

AWEKAS